Time;durP1;ratioP1;P1;durP2;ratioP2;P2;SDS_P1;SDS_P2;PMS_P1;PMS_P2;Temp;Humidity;BMP_temperature;BMP_pressure;BME280_temperature;BME280_humidity;BME280_pressure;Samples;Min_cycle;Max_cycle;Signal;HPM_P1;HPM_P2
2022/03/22 00:00:00;;;;;;;;;;;10.60;83.80;;;;;;6194518;23;19904;-88
2022/03/22 00:02:32;;;;;;;;;;;10.60;83.80;;;;;;6194476;23;19904;-89
2022/03/22 00:05:21;;;;;;;;;;;10.60;84.00;;;;;;6188185;23;20327;-89
2022/03/22 00:07:51;;;;;;;;;;;10.60;84.00;;;;;;6213878;23;19908;-90
2022/03/22 00:10:28;;;;;;;;;;;10.60;84.00;;;;;;6189160;23;19920;-89
2022/03/22 00:13:04;;;;;;;;;;;10.60;84.00;;;;;;6214414;23;19919;-88
2022/03/22 00:18:21;;;;;;;;;;;10.60;84.10;;;;;;6190503;23;19927;-87
2022/03/22 00:21:06;;;;;;;;;;;10.50;84.80;;;;;;6213490;23;20358;-89
2022/03/22 00:23:43;;;;;;;;;;;10.50;84.20;;;;;;6191198;23;19908;-89
2022/03/22 00:29:16;;;;;;;;;;;;;;;;;;;;;
2022/03/22 00:31:45;;;;;;;;;;;10.50;84.30;;;;;;6189593;23;19975;-87
2022/03/22 00:34:14;;;;;;;;;;;10.50;84.40;;;;;;6213010;23;20315;-89
2022/03/22 00:36:55;;;;;;;;;;;;;;;;;;;;;
2022/03/22 00:39:51;;;;;;;;;;;;;;;;;;;;;
2022/03/22 00:42:22;;;;;;;;;;;10.50;84.70;;;;;;6188924;23;19980;-89
2022/03/22 00:44:57;;;;;;;;;;;10.50;84.60;;;;;;6212893;23;19904;-89
2022/03/22 00:47:50;;;;;;;;;;;10.40;84.70;;;;;;6190055;23;19951;-90
2022/03/22 00:50:23;;;;;;;;;;;10.40;84.60;;;;;;6192754;23;19912;-90
2022/03/22 00:53:03;;;;;;;;;;;;;;;;;;;;;
2022/03/22 00:55:32;;;;;;;;;;;10.30;84.80;;;;;;6189276;23;20366;-89
2022/03/22 00:58:05;;;;;;;;;;;10.30;84.90;;;;;;6212425;23;20370;-89
2022/03/22 01:00:35;;;;;;;;;;;10.20;84.90;;;;;;6188561;23;19936;-88
2022/03/22 01:03:10;;;;;;;;;;;10.20;84.90;;;;;;6213449;23;19904;-89
2022/03/22 01:05:39;;;;;;;;;;;10.20;84.90;;;;;;6214416;23;19970;-89
2022/03/22 01:08:17;;;;;;;;;;;10.10;84.90;;;;;;6215732;23;19909;-88
2022/03/22 01:10:43;;;;;;;;;;;10.10;84.90;;;;;;6213612;23;19920;-90
2022/03/22 01:13:11;;;;;;;;;;;10.10;85.00;;;;;;6212659;23;19966;-90
2022/03/22 01:15:45;;;;;;;;;;;10.10;85.10;;;;;;6213346;23;19931;-90
2022/03/22 01:23:52;;;;;;;;;;;10.00;85.20;;;;;;6213550;23;19898;-90
2022/03/22 01:26:21;;;;;;;;;;;10.00;85.20;;;;;;6238865;23;19912;-89
2022/03/22 01:28:57;;;;;;;;;;;;;;;;;;;;;
2022/03/22 01:31:33;;;;;;;;;;;10.00;85.30;;;;;;6206358;23;19916;-88
2022/03/22 01:34:03;;;;;;;;;;;10.00;85.40;;;;;;6213799;23;19928;-88
2022/03/22 01:36:43;;;;;;;;;;;9.90;85.40;;;;;;6213445;23;19908;-88
2022/03/22 01:39:19;;;;;;;;;;;9.90;85.50;;;;;;6189303;23;19916;-90
2022/03/22 01:42:08;;;;;;;;;;;9.90;85.60;;;;;;6213512;23;19904;-90
2022/03/22 01:44:42;;;;;;;;;;;9.80;85.70;;;;;;6213511;23;19915;-89
2022/03/22 01:47:18;;;;;;;;;;;9.80;85.90;;;;;;6214457;23;20358;-88
2022/03/22 01:49:52;;;;;;;;;;;9.70;86.00;;;;;;6213465;23;19919;-89
2022/03/22 01:52:27;;;;;;;;;;;9.60;86.20;;;;;;6213268;23;20274;-89
2022/03/22 01:54:55;;;;;;;;;;;9.60;86.40;;;;;;6213591;23;19904;-89
2022/03/22 01:57:34;;;;;;;;;;;;;;;;;;;;;
2022/03/22 02:00:07;;;;;;;;;;;9.50;86.60;;;;;;6189217;23;19987;-89
2022/03/22 02:08:13;;;;;;;;;;;9.30;86.90;;;;;;6159706;23;19911;-90
2022/03/22 02:10:43;;;;;;;;;;;9.30;86.90;;;;;;6182036;23;19917;-90
2022/03/22 02:13:41;;;;;;;;;;;9.30;87.00;;;;;;6134395;23;19924;-89
2022/03/22 02:16:08;;;;;;;;;;;9.30;87.00;;;;;;6182941;23;19904;-88
2022/03/22 02:18:44;;;;;;;;;;;9.30;87.20;;;;;;6161039;23;19908;-89
2022/03/22 02:21:21;;;;;;;;;;;9.20;87.20;;;;;;6161262;23;19971;-89
2022/03/22 02:23:54;;;;;;;;;;;9.20;87.30;;;;;;6185051;23;20231;-89
2022/03/22 02:26:24;;;;;;;;;;;9.20;87.30;;;;;;6162514;23;19905;-88
2022/03/22 02:29:00;;;;;;;;;;;9.20;87.40;;;;;;6197994;23;19909;-89
2022/03/22 02:34:25;;;;;;;;;;;9.30;87.20;;;;;;6168253;23;19979;-90
2022/03/22 02:40:02;;;;;;;;;;;9.30;87.10;;;;;;6156105;23;19987;-88
2022/03/22 02:42:33;;;;;;;;;;;9.30;87.00;;;;;;6185384;23;19912;-89
2022/03/22 02:44:58;;;;;;;;;;;9.30;87.00;;;;;;6185978;23;19912;-88
2022/03/22 02:47:27;;;;;;;;;;;9.30;86.90;;;;;;6188623;23;19975;-89
2022/03/22 02:49:55;;;;;;;;;;;9.30;86.80;;;;;;6191352;23;19938;-90
2022/03/22 02:52:23;;;;;;;;;;;9.30;86.80;;;;;;6194964;23;19916;-88
2022/03/22 02:54:56;;;;;;;;;;;9.30;86.70;;;;;;6153991;23;19908;-89
2022/03/22 02:57:31;;;;;;;;;;;9.30;86.70;;;;;;6198879;23;19905;-88
2022/03/22 03:00:07;;;;;;;;;;;9.30;86.80;;;;;;6199129;23;20035;-89
2022/03/22 03:03:24;;;;;;;;;;;;;;;;;;;;;
2022/03/22 03:05:45;;;;;;;;;;;9.30;87.00;;;;;;6217149;23;19906;-88
2022/03/22 03:08:16;;;;;;;;;;;9.20;87.10;;;;;;6210398;23;19908;-89
2022/03/22 03:10:52;;;;;;;;;;;;;;;;;;;;;
2022/03/22 03:16:09;;;;;;;;;;;9.10;87.40;;;;;;6159315;23;19904;-88
2022/03/22 03:19:03;;;;;;;;;;;9.00;87.50;;;;;;6134282;23;19904;-89
2022/03/22 03:21:39;;;;;;;;;;;9.00;87.50;;;;;;6158313;23;19908;-89
2022/03/22 03:24:13;;;;;;;;;;;9.00;87.80;;;;;;6158717;23;19904;-90
2022/03/22 03:26:43;;;;;;;;;;;9.00;87.90;;;;;;6171437;23;20003;-89
2022/03/22 03:29:33;;;;;;;;;;;8.90;87.80;;;;;;6169486;23;19916;-90
2022/03/22 03:32:09;;;;;;;;;;;8.90;87.80;;;;;;6219245;23;19952;-89
2022/03/22 03:34:38;;;;;;;;;;;9.00;87.70;;;;;;6194743;23;19950;-89
2022/03/22 03:37:06;;;;;;;;;;;8.90;87.80;;;;;;6193956;23;19940;-89
2022/03/22 03:39:32;;;;;;;;;;;8.90;87.80;;;;;;6194296;23;19910;-90
2022/03/22 03:42:16;;;;;;;;;;;;;;;;;;;;;
2022/03/22 03:47:32;;;;;;;;;;;8.90;87.90;;;;;;6221013;23;19911;-89
2022/03/22 03:50:13;;;;;;;;;;;;;;;;;;;;;
2022/03/22 03:52:42;;;;;;;;;;;8.90;87.70;;;;;;6220319;23;20009;-89
2022/03/22 03:55:18;;;;;;;;;;;8.90;87.70;;;;;;6169780;23;19908;-89
2022/03/22 03:58:08;;;;;;;;;;;8.90;87.60;;;;;;6194258;23;20314;-88
2022/03/22 04:00:43;;;;;;;;;;;8.90;87.50;;;;;;6219890;23;19934;-90
2022/03/22 04:03:17;;;;;;;;;;;8.90;87.70;;;;;;6194153;23;20377;-87
2022/03/22 04:05:43;;;;;;;;;;;8.80;87.60;;;;;;6193418;23;20161;-89
2022/03/22 04:08:10;;;;;;;;;;;8.80;87.80;;;;;;6193402;23;19904;-88
2022/03/22 04:10:42;;;;;;;;;;;8.80;87.90;;;;;;6193342;23;19986;-88
2022/03/22 04:13:17;;;;;;;;;;;8.70;87.90;;;;;;6193983;23;19919;-89
2022/03/22 04:15:48;;;;;;;;;;;8.70;88.20;;;;;;6193905;23;20354;-90
2022/03/22 04:18:16;;;;;;;;;;;8.70;88.20;;;;;;6193856;23;19918;-90
2022/03/22 04:20:50;;;;;;;;;;;8.70;88.10;;;;;;6193208;23;20238;-89
2022/03/22 04:23:36;;;;;;;;;;;8.70;88.00;;;;;;6193793;23;19904;-88
2022/03/22 04:26:04;;;;;;;;;;;8.80;88.00;;;;;;6169491;23;19908;-89
2022/03/22 04:34:19;;;;;;;;;;;8.80;87.70;;;;;;6245039;22;19923;-90
2022/03/22 04:36:53;;;;;;;;;;;8.80;87.70;;;;;;6196721;22;19892;-86
2022/03/22 04:39:30;;;;;;;;;;;8.70;87.70;;;;;;6218956;22;19898;-90
2022/03/22 04:42:04;;;;;;;;;;;8.70;87.80;;;;;;6210588;23;19908;-90
2022/03/22 04:44:29;;;;;;;;;;;8.70;87.90;;;;;;6194011;23;19904;-87
2022/03/22 04:47:09;;;;;;;;;;;;;;;;;;;;;
2022/03/22 04:49:40;;;;;;;;;;;8.60;88.10;;;;;;6220668;23;19994;-90
2022/03/22 04:58:02;;;;;;;;;;;8.50;88.10;;;;;;6219367;23;19931;-88
2022/03/22 05:00:34;;;;;;;;;;;8.50;88.10;;;;;;6193146;23;19904;-87
2022/03/22 05:03:08;;;;;;;;;;;8.50;88.10;;;;;;6192897;23;19946;-89
2022/03/22 05:08:25;;;;;;;;;;;8.50;88.00;;;;;;6219256;23;19910;-89
2022/03/22 05:11:11;;;;;;;;;;;8.60;87.90;;;;;;6193046;23;19908;-88
2022/03/22 05:13:48;;;;;;;;;;;8.60;87.80;;;;;;6219878;23;20333;-90
2022/03/22 05:16:42;;;;;;;;;;;8.60;87.70;;;;;;6193773;23;19908;-91
2022/03/22 05:19:13;;;;;;;;;;;8.60;87.70;;;;;;6172005;23;19939;-89
2022/03/22 05:21:46;;;;;;;;;;;8.60;87.70;;;;;;6168917;23;20318;-89
2022/03/22 05:24:25;;;;;;;;;;;;;;;;;;;;;
2022/03/22 05:26:56;;;;;;;;;;;8.70;87.80;;;;;;6195307;23;19983;-89
2022/03/22 05:29:24;;;;;;;;;;;8.60;87.70;;;;;;6219539;23;19946;-88
2022/03/22 05:31:52;;;;;;;;;;;8.70;88.30;;;;;;6193930;23;19915;-88
2022/03/22 05:34:28;;;;;;;;;;;8.60;87.60;;;;;;6194523;23;19904;-87
2022/03/22 05:36:59;;;;;;;;;;;8.70;87.70;;;;;;6234919;23;19914;-88
2022/03/22 05:42:26;;;;;;;;;;;8.70;87.80;;;;;;6239013;23;19904;-90
2022/03/22 05:48:09;;;;;;;;;;;8.60;87.90;;;;;;6185693;23;20314;-89
2022/03/22 05:50:54;;;;;;;;;;;8.60;87.90;;;;;;6195681;23;19908;-89
2022/03/22 05:53:23;;;;;;;;;;;8.60;88.00;;;;;;6193302;23;19943;-89
2022/03/22 06:02:13;;;;;;;;;;;8.60;88.20;;;;;;6211131;23;19907;-91
2022/03/22 06:04:54;;;;;;;;;;;8.60;88.10;;;;;;6172892;23;19920;-89
2022/03/22 06:10:37;;;;;;;;;;;8.60;88.10;;;;;;6225656;22;19903;-85
2022/03/22 06:13:06;;;;;;;;;;;8.70;88.10;;;;;;6193101;23;19923;-87
2022/03/22 06:19:05;;;;;;;;;;;8.70;88.20;;;;;;6217217;23;19904;-91
2022/03/22 06:21:44;;;;;;;;;;;;;;;;;;;;;
2022/03/22 06:25:16;;;;;;;;;;;;;;;;;;;;;
2022/03/22 06:28:14;;;;;;;;;;;;;;;;;;;;;
2022/03/22 06:34:29;;;;;;;;;;;;;;;;;;;;;
2022/03/22 06:43:20;;;;;;;;;;;9.10;87.30;;;;;;6013893;23;19907;-89
2022/03/22 06:46:17;;;;;;;;;;;;;;;;;;;;;
2022/03/22 06:48:55;;;;;;;;;;;9.20;87.10;;;;;;6096141;23;19984;-89
2022/03/22 06:51:49;;;;;;;;;;;9.20;87.10;;;;;;6073474;23;19920;-90
2022/03/22 06:54:28;;;;;;;;;;;9.20;87.00;;;;;;6091871;23;19932;-89
2022/03/22 06:57:24;;;;;;;;;;;;;;;;;;;;;
2022/03/22 07:03:38;;;;;;;;;;;9.40;86.60;;;;;;6042213;23;19997;-91
2022/03/22 07:10:07;;;;;;;;;;;;;;;;;;;;;
2022/03/22 07:12:53;;;;;;;;;;;9.60;86.20;;;;;;6096332;23;20348;-90
2022/03/22 07:18:30;;;;;;;;;;;9.70;85.70;;;;;;6158096;23;20267;-89
2022/03/22 07:21:29;;;;;;;;;;;;;;;;;;;;;
2022/03/22 07:24:20;;;;;;;;;;;;;;;;;;;;;
2022/03/22 07:26:58;;;;;;;;;;;9.90;85.30;;;;;;6187588;23;19971;-90
2022/03/22 07:29:51;;;;;;;;;;;9.90;85.20;;;;;;6162266;23;19975;-90
2022/03/22 07:32:49;;;;;;;;;;;9.90;85.00;;;;;;6153066;23;19931;-89
2022/03/22 07:48:08;;;;;;;;;;;10.20;83.70;;;;;;6188116;23;19897;-91
2022/03/22 07:53:50;;;;;;;;;;;;;;;;;;;;;
2022/03/22 07:56:39;;;;;;;;;;;10.40;83.50;;;;;;6214748;23;19904;-91
2022/03/22 08:02:42;;;;;;;;;;;10.50;83.40;;;;;;6193111;23;19946;-92
2022/03/22 08:05:08;;;;;;;;;;;10.60;83.40;;;;;;6175537;23;20250;-88
2022/03/22 08:07:54;;;;;;;;;;;;;;;;;;;;;
2022/03/22 08:20:05;;;;;;;;;;;10.80;82.70;;;;;;6069989;23;19938;-89
2022/03/22 08:23:06;;;;;;;;;;;10.90;82.60;;;;;;6050931;23;19976;-91
2022/03/22 08:29:07;;;;;;;;;;;;;;;;;;;;;
2022/03/22 08:31:51;;;;;;;;;;;11.10;82.40;;;;;;6174513;23;20007;-89
2022/03/22 08:37:42;;;;;;;;;;;11.20;82.20;;;;;;6203262;23;19911;-88
2022/03/22 08:40:10;;;;;;;;;;;11.30;82.00;;;;;;6193623;23;19927;-90
2022/03/22 08:42:43;;;;;;;;;;;11.30;81.80;;;;;;6193326;23;19904;-89
2022/03/22 08:45:34;;;;;;;;;;;11.40;81.50;;;;;;6195942;23;20304;-89
2022/03/22 08:51:29;;;;;;;;;;;;;;;;;;;;;
2022/03/22 08:54:15;;;;;;;;;;;;;;;;;;;;;
2022/03/22 08:56:46;;;;;;;;;;;11.60;80.90;;;;;;6219612;23;19988;-88
2022/03/22 08:59:22;;;;;;;;;;;;;;;;;;;;;
2022/03/22 09:01:54;;;;;;;;;;;11.80;81.00;;;;;;6219223;23;19975;-88
2022/03/22 09:07:24;;;;;;;;;;;11.90;80.50;;;;;;6196570;23;19926;-87
2022/03/22 09:10:18;;;;;;;;;;;;;;;;;;;;;
2022/03/22 09:19:46;;;;;;;;;;;;;;;;;;;;;
2022/03/22 09:22:35;;;;;;;;;;;12.30;79.80;;;;;;6243693;23;19911;-90
2022/03/22 09:27:53;;;;;;;;;;;12.50;79.70;;;;;;6195884;23;19951;-90
2022/03/22 09:39:58;;;;;;;;;;;;;;;;;;;;;
2022/03/22 09:42:45;;;;;;;;;;;;;;;;;;;;;
2022/03/22 09:48:34;;;;;;;;;;;;;;;;;;;;;
2022/03/22 09:54:25;;;;;;;;;;;;;;;;;;;;;
2022/03/22 09:56:53;;;;;;;;;;;13.50;75.30;;;;;;6210519;23;19979;-90
2022/03/22 09:59:40;;;;;;;;;;;13.60;75.60;;;;;;6168516;23;19914;-89
2022/03/22 10:05:33;;;;;;;;;;;;;;;;;;;;;
2022/03/22 10:08:27;;;;;;;;;;;13.80;75.80;;;;;;6195298;23;19954;-90
2022/03/22 10:11:26;;;;;;;;;;;13.90;75.70;;;;;;6192600;23;19912;-89
2022/03/22 10:14:22;;;;;;;;;;;;;;;;;;;;;
2022/03/22 10:17:11;;;;;;;;;;;14.00;75.80;;;;;;6214234;23;20007;-90
2022/03/22 10:20:12;;;;;;;;;;;14.10;76.10;;;;;;6175987;23;20337;-91
2022/03/22 10:23:36;;;;;;;;;;;14.10;76.20;;;;;;6193255;23;20337;-90
2022/03/22 10:26:17;;;;;;;;;;;14.20;76.40;;;;;;6203876;23;20204;-91
2022/03/22 10:29:12;;;;;;;;;;;14.30;74.50;;;;;;6170809;23;19911;-89
2022/03/22 10:32:00;;;;;;;;;;;14.40;74.90;;;;;;6169018;23;19994;-89
2022/03/22 10:34:55;;;;;;;;;;;14.50;75.00;;;;;;6178563;23;20333;-90
2022/03/22 10:37:37;;;;;;;;;;;14.60;75.10;;;;;;6179378;23;19904;-90
2022/03/22 10:40:48;;;;;;;;;;;;;;;;;;;;;
2022/03/22 10:46:35;;;;;;;;;;;14.90;74.40;;;;;;6193734;23;19908;-89
2022/03/22 10:52:47;;;;;;;;;;;15.00;74.30;;;;;;6144874;23;19908;-90
2022/03/22 10:55:41;;;;;;;;;;;15.00;73.60;;;;;;6190531;23;19987;-90
2022/03/22 10:58:47;;;;;;;;;;;15.10;74.10;;;;;;6173401;23;19947;-89
2022/03/22 11:01:25;;;;;;;;;;;15.20;73.80;;;;;;6195007;23;20191;-90
2022/03/22 11:04:53;;;;;;;;;;;;;;;;;;;;;
2022/03/22 11:19:46;;;;;;;;;;;;;;;;;;;;;
2022/03/22 11:22:32;;;;;;;;;;;;;;;;;;;;;
2022/03/22 11:28:48;;;;;;;;;;;15.90;66.80;;;;;;6170765;23;19939;-89
2022/03/22 11:34:34;;;;;;;;;;;16.10;65.00;;;;;;6175210;23;19904;-90
2022/03/22 11:37:40;;;;;;;;;;;16.20;65.20;;;;;;6174808;23;19994;-89
2022/03/22 11:43:39;;;;;;;;;;;16.30;65.30;;;;;;6220937;23;19927;-91
2022/03/22 11:46:41;;;;;;;;;;;;;;;;;;;;;
2022/03/22 11:56:28;;;;;;;;;;;;;;;;;;;;;
2022/03/22 12:02:53;;;;;;;;;;;;;;;;;;;;;
2022/03/22 12:05:52;;;;;;;;;;;;;;;;;;;;;
2022/03/22 12:08:37;;;;;;;;;;;16.70;63.30;;;;;;6093984;23;19945;-91
2022/03/22 12:18:03;;;;;;;;;;;;;;;;;;;;;
2022/03/22 12:33:46;;;;;;;;;;;17.10;65.70;;;;;;5929260;24;19912;-91
2022/03/22 17:49:17;;;;;;;;;;;16.80;54.90;;;;;;6187818;23;20290;-89
2022/03/22 17:55:25;;;;;;;;;;;;;;;;;;;;;
2022/03/22 20:03:21;;;;;;;;;;;;;;;;;;;;;
2022/03/22 20:12:41;;;;;;;;;;;12.80;66.60;;;;;;6197551;23;19904;-93
2022/03/22 20:15:22;;;;;;;;;;;;;;;;;;;;;
2022/03/22 20:18:15;;;;;;;;;;;12.70;66.50;;;;;;6197278;23;19939;-92
2022/03/22 20:20:51;;;;;;;;;;;12.70;66.70;;;;;;6214141;22;19916;-91
2022/03/22 20:23:35;;;;;;;;;;;12.70;66.90;;;;;;6163409;23;19911;-91
2022/03/22 20:29:14;;;;;;;;;;;12.60;67.20;;;;;;6214656;22;19923;-90
2022/03/22 20:32:00;;;;;;;;;;;12.50;67.50;;;;;;6176824;23;19904;-90
2022/03/22 20:34:38;;;;;;;;;;;;;;;;;;;;;
2022/03/22 20:37:12;;;;;;;;;;;12.40;67.90;;;;;;6196996;23;19940;-91
2022/03/22 20:40:14;;;;;;;;;;;12.40;68.00;;;;;;6170447;23;19943;-91
2022/03/22 20:45:39;;;;;;;;;;;12.30;68.50;;;;;;6194675;23;19912;-92
2022/03/22 20:54:53;;;;;;;;;;;;;;;;;;;;;
2022/03/22 21:00:43;;;;;;;;;;;;;;;;;;;;;
2022/03/22 21:06:25;;;;;;;;;;;11.80;69.70;;;;;;6103415;23;19928;-91
2022/03/22 21:08:58;;;;;;;;;;;11.80;69.70;;;;;;6097906;23;19992;-89
2022/03/22 21:11:44;;;;;;;;;;;;;;;;;;;;;
2022/03/22 21:21:11;;;;;;;;;;;11.70;69.50;;;;;;6127570;23;19905;-92
2022/03/22 21:23:43;;;;;;;;;;;11.70;69.70;;;;;;6099918;23;19920;-90
2022/03/22 21:26:18;;;;;;;;;;;11.60;69.50;;;;;;6102888;23;19909;-90
2022/03/22 21:28:54;;;;;;;;;;;11.70;69.60;;;;;;6081010;23;19913;-91
2022/03/22 21:31:49;;;;;;;;;;;11.70;69.40;;;;;;6133254;23;19924;-91
2022/03/22 21:34:34;;;;;;;;;;;11.70;69.20;;;;;;6163839;23;19905;-89
2022/03/22 21:37:20;;;;;;;;;;;11.70;69.30;;;;;;6188970;23;19904;-91
2022/03/22 21:39:56;;;;;;;;;;;11.60;69.60;;;;;;6163911;23;19908;-91
2022/03/22 21:48:36;;;;;;;;;;;11.50;70.30;;;;;;6190409;23;19904;-92
2022/03/22 21:51:12;;;;;;;;;;;;;;;;;;;;;
2022/03/22 21:53:49;;;;;;;;;;;11.40;70.60;;;;;;6191919;23;19940;-91
2022/03/22 21:56:26;;;;;;;;;;;11.30;70.70;;;;;;6191823;23;19904;-90
2022/03/22 22:02:06;;;;;;;;;;;11.20;70.80;;;;;;6199679;22;19893;-91
2022/03/22 22:04:49;;;;;;;;;;;11.20;71.00;;;;;;6229629;22;19928;-90
2022/03/22 22:07:17;;;;;;;;;;;11.20;71.10;;;;;;6214399;22;19911;-91
2022/03/22 22:09:46;;;;;;;;;;;11.10;71.10;;;;;;6217580;23;19916;-90
2022/03/22 22:12:31;;;;;;;;;;;;;;;;;;;;;
2022/03/22 22:15:38;;;;;;;;;;;11.10;71.30;;;;;;6219880;23;19952;-90
2022/03/22 22:18:11;;;;;;;;;;;11.00;71.50;;;;;;6216451;23;19904;-89
2022/03/22 22:20:54;;;;;;;;;;;11.00;71.50;;;;;;6170350;23;19908;-90
2022/03/22 22:23:25;;;;;;;;;;;11.00;71.50;;;;;;6193707;23;19927;-91
2022/03/22 22:25:53;;;;;;;;;;;11.00;71.50;;;;;;6198548;23;19904;-91
2022/03/22 22:28:24;;;;;;;;;;;10.90;71.40;;;;;;6200109;23;19908;-91
2022/03/22 22:31:01;;;;;;;;;;;10.90;71.50;;;;;;6173562;23;19916;-90
2022/03/22 22:36:47;;;;;;;;;;;10.90;71.50;;;;;;6221602;23;19911;-91
2022/03/22 22:39:20;;;;;;;;;;;10.80;72.20;;;;;;6195356;23;19911;-90
2022/03/22 22:41:57;;;;;;;;;;;10.90;71.70;;;;;;6194734;23;19911;-90
2022/03/22 22:44:43;;;;;;;;;;;10.90;71.60;;;;;;6221315;23;20302;-91
2022/03/22 22:47:24;;;;;;;;;;;;;;;;;;;;;
2022/03/22 22:49:52;;;;;;;;;;;10.90;71.60;;;;;;6221394;23;19994;-90
2022/03/22 22:52:44;;;;;;;;;;;10.80;71.80;;;;;;6194349;23;19910;-91
2022/03/22 22:55:21;;;;;;;;;;;10.80;72.10;;;;;;6212650;23;19983;-90
2022/03/22 22:57:56;;;;;;;;;;;10.70;72.40;;;;;;6194737;23;19990;-90
2022/03/22 23:00:52;;;;;;;;;;;10.70;72.60;;;;;;6193569;23;19943;-90
2022/03/22 23:03:35;;;;;;;;;;;10.60;72.60;;;;;;6194251;23;19979;-88
2022/03/22 23:06:12;;;;;;;;;;;10.60;72.80;;;;;;6194438;23;19916;-90
2022/03/22 23:11:35;;;;;;;;;;;10.50;72.90;;;;;;6221599;23;19974;-90
2022/03/22 23:14:20;;;;;;;;;;;10.40;73.00;;;;;;6194629;23;20392;-90
2022/03/22 23:16:46;;;;;;;;;;;10.40;73.20;;;;;;6171556;23;19907;-90
2022/03/22 23:19:34;;;;;;;;;;;10.30;73.30;;;;;;6193887;23;20338;-90
2022/03/22 23:22:06;;;;;;;;;;;10.30;73.40;;;;;;6198296;23;19904;-91
2022/03/22 23:24:48;;;;;;;;;;;;;;;;;;;;;
2022/03/22 23:27:24;;;;;;;;;;;10.20;73.90;;;;;;6223724;23;19935;-90
2022/03/22 23:29:55;;;;;;;;;;;10.10;73.90;;;;;;6194986;23;19911;-90
2022/03/22 23:32:43;;;;;;;;;;;10.10;74.10;;;;;;6170142;23;19999;-91
2022/03/22 23:35:39;;;;;;;;;;;10.00;74.00;;;;;;6173931;23;20073;-90
2022/03/22 23:38:42;;;;;;;;;;;;;;;;;;;;;
2022/03/22 23:41:14;;;;;;;;;;;9.90;74.20;;;;;;6232115;22;19896;-90
2022/03/22 23:44:00;;;;;;;;;;;9.90;74.40;;;;;;6244565;22;19918;-89
2022/03/22 23:53:04;;;;;;;;;;;;;;;;;;;;;
2022/03/22 23:55:32;;;;;;;;;;;9.70;74.70;;;;;;6220693;23;20371;-88
